sensor_id;sensor_type;location;lat;lon;timestamp;P1;durP1;ratioP1;P2;durP2;ratioP2
1839;SDS011;920;48.944;9.148;2023-02-28T00:00:11;4.70;;;2.70;;
1839;SDS011;920;48.944;9.148;2023-02-28T00:02:42;4.00;;;3.20;;
1839;SDS011;920;48.944;9.148;2023-02-28T00:05:11;4.30;;;2.73;;
1839;SDS011;920;48.944;9.148;2023-02-28T00:07:39;4.50;;;3.00;;
1839;SDS011;920;48.944;9.148;2023-02-28T00:10:09;4.27;;;3.10;;
1839;SDS011;920;48.944;9.148;2023-02-28T00:12:37;4.10;;;3.20;;
1839;SDS011;920;48.944;9.148;2023-02-28T00:15:05;3.50;;;2.60;;
1839;SDS011;920;48.944;9.148;2023-02-28T00:17:32;4.50;;;2.90;;
1839;SDS011;920;48.944;9.148;2023-02-28T00:19:59;5.20;;;2.73;;
1839;SDS011;920;48.944;9.148;2023-02-28T00:22:35;4.40;;;3.00;;
1839;SDS011;920;48.944;9.148;2023-02-28T00:25:02;4.60;;;3.13;;
1839;SDS011;920;48.944;9.148;2023-02-28T00:27:30;4.37;;;3.10;;
1839;SDS011;920;48.944;9.148;2023-02-28T00:29:57;4.53;;;3.10;;
1839;SDS011;920;48.944;9.148;2023-02-28T00:32:24;4.83;;;3.27;;
1839;SDS011;920;48.944;9.148;2023-02-28T00:34:51;3.60;;;2.50;;
1839;SDS011;920;48.944;9.148;2023-02-28T00:37:18;5.10;;;3.27;;
1839;SDS011;920;48.944;9.148;2023-02-28T00:39:47;3.77;;;3.30;;
1839;SDS011;920;48.944;9.148;2023-02-28T00:42:17;3.80;;;2.40;;
1839;SDS011;920;48.944;9.148;2023-02-28T00:44:48;4.77;;;2.77;;
1839;SDS011;920;48.944;9.148;2023-02-28T00:47:14;4.40;;;3.30;;
1839;SDS011;920;48.944;9.148;2023-02-28T00:49:42;4.37;;;3.40;;
1839;SDS011;920;48.944;9.148;2023-02-28T00:52:08;4.43;;;3.47;;
1839;SDS011;920;48.944;9.148;2023-02-28T00:54:40;9.13;;;3.80;;
1839;SDS011;920;48.944;9.148;2023-02-28T00:57:13;5.20;;;3.27;;
1839;SDS011;920;48.944;9.148;2023-02-28T00:59:40;4.07;;;3.10;;
1839;SDS011;920;48.944;9.148;2023-02-28T01:02:08;6.87;;;3.20;;
1839;SDS011;920;48.944;9.148;2023-02-28T01:04:37;8.17;;;3.57;;
1839;SDS011;920;48.944;9.148;2023-02-28T01:07:04;4.93;;;3.63;;
1839;SDS011;920;48.944;9.148;2023-02-28T01:09:31;5.00;;;3.30;;
1839;SDS011;920;48.944;9.148;2023-02-28T01:12:01;5.17;;;3.60;;
1839;SDS011;920;48.944;9.148;2023-02-28T01:14:27;4.80;;;3.20;;
1839;SDS011;920;48.944;9.148;2023-02-28T01:16:54;4.20;;;3.40;;
1839;SDS011;920;48.944;9.148;2023-02-28T01:19:22;3.83;;;3.00;;
1839;SDS011;920;48.944;9.148;2023-02-28T01:21:51;4.20;;;3.17;;
1839;SDS011;920;48.944;9.148;2023-02-28T01:24:18;4.30;;;3.33;;
1839;SDS011;920;48.944;9.148;2023-02-28T01:26:45;4.40;;;3.43;;
1839;SDS011;920;48.944;9.148;2023-02-28T01:29:14;4.70;;;3.13;;
1839;SDS011;920;48.944;9.148;2023-02-28T01:31:47;4.00;;;3.40;;
1839;SDS011;920;48.944;9.148;2023-02-28T01:34:16;4.10;;;3.30;;
1839;SDS011;920;48.944;9.148;2023-02-28T01:36:45;5.33;;;3.13;;
1839;SDS011;920;48.944;9.148;2023-02-28T01:39:14;4.70;;;3.50;;
1839;SDS011;920;48.944;9.148;2023-02-28T01:41:43;5.30;;;3.60;;
1839;SDS011;920;48.944;9.148;2023-02-28T01:47:17;6.63;;;3.67;;
1839;SDS011;920;48.944;9.148;2023-02-28T01:49:44;4.90;;;3.30;;
1839;SDS011;920;48.944;9.148;2023-02-28T01:52:15;3.97;;;3.00;;
1839;SDS011;920;48.944;9.148;2023-02-28T01:54:43;3.67;;;2.77;;
1839;SDS011;920;48.944;9.148;2023-02-28T01:57:16;5.23;;;3.53;;
1839;SDS011;920;48.944;9.148;2023-02-28T01:59:45;4.73;;;3.00;;
1839;SDS011;920;48.944;9.148;2023-02-28T02:02:16;4.50;;;2.83;;
1839;SDS011;920;48.944;9.148;2023-02-28T02:04:48;4.90;;;3.20;;
1839;SDS011;920;48.944;9.148;2023-02-28T02:07:19;4.10;;;2.70;;
1839;SDS011;920;48.944;9.148;2023-02-28T02:09:46;5.23;;;3.30;;
1839;SDS011;920;48.944;9.148;2023-02-28T02:12:17;4.70;;;3.70;;
1839;SDS011;920;48.944;9.148;2023-02-28T02:14:53;4.47;;;3.37;;
1839;SDS011;920;48.944;9.148;2023-02-28T02:17:28;5.60;;;3.70;;
1839;SDS011;920;48.944;9.148;2023-02-28T02:26:27;4.40;;;3.70;;
1839;SDS011;920;48.944;9.148;2023-02-28T02:29:12;3.40;;;3.03;;
1839;SDS011;920;48.944;9.148;2023-02-28T02:32:04;4.60;;;3.80;;
1839;SDS011;920;48.944;9.148;2023-02-28T02:34:50;6.23;;;3.83;;
1839;SDS011;920;48.944;9.148;2023-02-28T02:37:28;5.37;;;3.90;;
1839;SDS011;920;48.944;9.148;2023-02-28T02:40:00;4.80;;;3.63;;
1839;SDS011;920;48.944;9.148;2023-02-28T02:42:35;4.60;;;3.93;;
1839;SDS011;920;48.944;9.148;2023-02-28T02:45:06;5.40;;;3.80;;
1839;SDS011;920;48.944;9.148;2023-02-28T02:47:36;4.43;;;3.33;;
1839;SDS011;920;48.944;9.148;2023-02-28T02:50:06;5.53;;;4.27;;
1839;SDS011;920;48.944;9.148;2023-02-28T02:52:40;5.37;;;3.87;;
1839;SDS011;920;48.944;9.148;2023-02-28T02:55:14;6.70;;;4.10;;
1839;SDS011;920;48.944;9.148;2023-02-28T02:57:45;4.90;;;4.03;;
1839;SDS011;920;48.944;9.148;2023-02-28T03:00:16;6.10;;;3.90;;
1839;SDS011;920;48.944;9.148;2023-02-28T03:02:48;5.10;;;4.03;;
1839;SDS011;920;48.944;9.148;2023-02-28T03:05:21;5.37;;;4.00;;
1839;SDS011;920;48.944;9.148;2023-02-28T03:07:50;6.00;;;4.30;;
1839;SDS011;920;48.944;9.148;2023-02-28T03:10:32;7.53;;;4.70;;
1839;SDS011;920;48.944;9.148;2023-02-28T03:13:06;4.70;;;3.80;;
1839;SDS011;920;48.944;9.148;2023-02-28T03:15:57;5.33;;;4.10;;
1839;SDS011;920;48.944;9.148;2023-02-28T03:18:32;5.70;;;4.50;;
1839;SDS011;920;48.944;9.148;2023-02-28T03:21:06;6.80;;;4.23;;
1839;SDS011;920;48.944;9.148;2023-02-28T03:23:44;6.93;;;4.30;;
1839;SDS011;920;48.944;9.148;2023-02-28T03:26:19;5.20;;;3.90;;
1839;SDS011;920;48.944;9.148;2023-02-28T03:28:50;5.90;;;4.50;;
1839;SDS011;920;48.944;9.148;2023-02-28T03:31:20;11.77;;;5.43;;
1839;SDS011;920;48.944;9.148;2023-02-28T03:33:50;5.63;;;3.80;;
1839;SDS011;920;48.944;9.148;2023-02-28T03:36:22;5.53;;;4.67;;
1839;SDS011;920;48.944;9.148;2023-02-28T03:38:54;7.67;;;4.70;;
1839;SDS011;920;48.944;9.148;2023-02-28T03:41:25;4.93;;;3.80;;
1839;SDS011;920;48.944;9.148;2023-02-28T03:43:55;7.43;;;4.13;;
1839;SDS011;920;48.944;9.148;2023-02-28T03:46:30;6.27;;;4.50;;
1839;SDS011;920;48.944;9.148;2023-02-28T03:49:00;6.17;;;4.20;;
1839;SDS011;920;48.944;9.148;2023-02-28T03:51:30;5.10;;;4.13;;
1839;SDS011;920;48.944;9.148;2023-02-28T03:53:59;4.50;;;3.80;;
1839;SDS011;920;48.944;9.148;2023-02-28T03:56:31;6.00;;;4.60;;
1839;SDS011;920;48.944;9.148;2023-02-28T03:59:04;5.70;;;4.13;;
1839;SDS011;920;48.944;9.148;2023-02-28T04:01:34;7.17;;;4.63;;
1839;SDS011;920;48.944;9.148;2023-02-28T04:04:03;6.00;;;4.10;;
1839;SDS011;920;48.944;9.148;2023-02-28T04:06:33;5.10;;;3.90;;
1839;SDS011;920;48.944;9.148;2023-02-28T04:09:00;5.33;;;3.70;;
1839;SDS011;920;48.944;9.148;2023-02-28T04:11:31;4.67;;;3.60;;
1839;SDS011;920;48.944;9.148;2023-02-28T04:13:59;6.70;;;4.93;;
1839;SDS011;920;48.944;9.148;2023-02-28T04:16:27;7.77;;;5.00;;
1839;SDS011;920;48.944;9.148;2023-02-28T04:18:54;7.93;;;4.53;;
1839;SDS011;920;48.944;9.148;2023-02-28T04:21:27;6.53;;;4.77;;
1839;SDS011;920;48.944;9.148;2023-02-28T04:23:55;6.03;;;3.97;;
1839;SDS011;920;48.944;9.148;2023-02-28T04:26:27;7.63;;;5.17;;
1839;SDS011;920;48.944;9.148;2023-02-28T04:28:55;6.30;;;4.47;;
1839;SDS011;920;48.944;9.148;2023-02-28T04:31:25;5.27;;;3.93;;
1839;SDS011;920;48.944;9.148;2023-02-28T04:33:55;6.20;;;4.57;;
1839;SDS011;920;48.944;9.148;2023-02-28T04:36:21;5.20;;;3.90;;
1839;SDS011;920;48.944;9.148;2023-02-28T04:38:49;6.50;;;4.17;;
1839;SDS011;920;48.944;9.148;2023-02-28T04:41:17;5.10;;;4.03;;
1839;SDS011;920;48.944;9.148;2023-02-28T04:43:44;5.13;;;4.17;;
1839;SDS011;920;48.944;9.148;2023-02-28T04:46:11;7.43;;;4.60;;
1839;SDS011;920;48.944;9.148;2023-02-28T04:48:41;7.30;;;4.60;;
1839;SDS011;920;48.944;9.148;2023-02-28T04:51:09;5.07;;;4.13;;
1839;SDS011;920;48.944;9.148;2023-02-28T04:53:38;6.17;;;4.73;;
1839;SDS011;920;48.944;9.148;2023-02-28T04:56:07;6.17;;;4.90;;
1839;SDS011;920;48.944;9.148;2023-02-28T04:58:36;9.03;;;4.97;;
1839;SDS011;920;48.944;9.148;2023-02-28T05:01:03;5.63;;;4.60;;
1839;SDS011;920;48.944;9.148;2023-02-28T05:03:37;9.27;;;5.67;;
1839;SDS011;920;48.944;9.148;2023-02-28T05:06:05;7.93;;;5.33;;
1839;SDS011;920;48.944;9.148;2023-02-28T05:08:32;6.33;;;4.53;;
1839;SDS011;920;48.944;9.148;2023-02-28T05:10:59;7.00;;;5.23;;
1839;SDS011;920;48.944;9.148;2023-02-28T05:13:26;7.17;;;5.67;;
1839;SDS011;920;48.944;9.148;2023-02-28T05:15:55;7.07;;;5.83;;
1839;SDS011;920;48.944;9.148;2023-02-28T05:18:22;8.70;;;5.57;;
1839;SDS011;920;48.944;9.148;2023-02-28T05:20:48;7.97;;;5.77;;
1839;SDS011;920;48.944;9.148;2023-02-28T05:23:17;6.87;;;5.10;;
1839;SDS011;920;48.944;9.148;2023-02-28T05:25:49;8.43;;;5.53;;
1839;SDS011;920;48.944;9.148;2023-02-28T05:28:17;7.23;;;5.60;;
1839;SDS011;920;48.944;9.148;2023-02-28T05:30:44;7.40;;;4.80;;
1839;SDS011;920;48.944;9.148;2023-02-28T05:33:12;8.17;;;5.57;;
1839;SDS011;920;48.944;9.148;2023-02-28T05:35:39;8.33;;;5.60;;
1839;SDS011;920;48.944;9.148;2023-02-28T05:38:07;8.27;;;5.37;;
1839;SDS011;920;48.944;9.148;2023-02-28T05:40:33;8.83;;;5.40;;
1839;SDS011;920;48.944;9.148;2023-02-28T05:43:08;8.60;;;6.03;;
1839;SDS011;920;48.944;9.148;2023-02-28T05:45:36;8.07;;;5.40;;
1839;SDS011;920;48.944;9.148;2023-02-28T05:48:09;8.90;;;6.37;;
1839;SDS011;920;48.944;9.148;2023-02-28T05:50:37;8.30;;;6.63;;
1839;SDS011;920;48.944;9.148;2023-02-28T05:53:04;8.10;;;5.27;;
1839;SDS011;920;48.944;9.148;2023-02-28T05:55:30;7.97;;;5.60;;
1839;SDS011;920;48.944;9.148;2023-02-28T05:57:57;8.27;;;5.37;;
1839;SDS011;920;48.944;9.148;2023-02-28T06:00:27;7.80;;;5.03;;
1839;SDS011;920;48.944;9.148;2023-02-28T06:02:54;7.23;;;5.33;;
1839;SDS011;920;48.944;9.148;2023-02-28T06:05:26;8.70;;;6.80;;
1839;SDS011;920;48.944;9.148;2023-02-28T06:07:55;10.53;;;7.27;;
1839;SDS011;920;48.944;9.148;2023-02-28T06:10:22;7.60;;;6.03;;
1839;SDS011;920;48.944;9.148;2023-02-28T06:12:49;7.17;;;5.60;;
1839;SDS011;920;48.944;9.148;2023-02-28T06:15:16;10.63;;;7.00;;
1839;SDS011;920;48.944;9.148;2023-02-28T06:17:48;7.77;;;5.70;;
1839;SDS011;920;48.944;9.148;2023-02-28T06:20:17;8.10;;;5.77;;
1839;SDS011;920;48.944;9.148;2023-02-28T06:22:46;8.70;;;6.13;;
1839;SDS011;920;48.944;9.148;2023-02-28T06:25:14;9.30;;;6.60;;
1839;SDS011;920;48.944;9.148;2023-02-28T06:27:40;8.30;;;5.30;;
1839;SDS011;920;48.944;9.148;2023-02-28T06:30:09;11.40;;;7.67;;
1839;SDS011;920;48.944;9.148;2023-02-28T06:32:36;10.30;;;6.53;;
1839;SDS011;920;48.944;9.148;2023-02-28T06:35:03;9.67;;;6.70;;
1839;SDS011;920;48.944;9.148;2023-02-28T06:37:30;10.00;;;7.20;;
1839;SDS011;920;48.944;9.148;2023-02-28T06:39:58;11.20;;;6.20;;
1839;SDS011;920;48.944;9.148;2023-02-28T06:42:26;8.57;;;6.57;;
1839;SDS011;920;48.944;9.148;2023-02-28T06:44:59;8.40;;;5.80;;
1839;SDS011;920;48.944;9.148;2023-02-28T06:47:31;9.40;;;6.60;;
1839;SDS011;920;48.944;9.148;2023-02-28T06:49:58;7.90;;;5.83;;
1839;SDS011;920;48.944;9.148;2023-02-28T06:52:26;9.73;;;6.93;;
1839;SDS011;920;48.944;9.148;2023-02-28T06:54:55;7.97;;;6.50;;
1839;SDS011;920;48.944;9.148;2023-02-28T06:57:28;11.37;;;6.60;;
1839;SDS011;920;48.944;9.148;2023-02-28T06:59:56;10.00;;;5.93;;
1839;SDS011;920;48.944;9.148;2023-02-28T07:02:23;11.13;;;6.70;;
1839;SDS011;920;48.944;9.148;2023-02-28T07:04:50;11.20;;;7.80;;
1839;SDS011;920;48.944;9.148;2023-02-28T07:07:17;7.83;;;6.07;;
1839;SDS011;920;48.944;9.148;2023-02-28T07:09:46;10.27;;;6.67;;
1839;SDS011;920;48.944;9.148;2023-02-28T07:12:13;9.97;;;6.87;;
1839;SDS011;920;48.944;9.148;2023-02-28T07:14:41;11.27;;;6.83;;
1839;SDS011;920;48.944;9.148;2023-02-28T07:17:08;8.37;;;6.37;;
1839;SDS011;920;48.944;9.148;2023-02-28T07:19:37;12.00;;;7.10;;
1839;SDS011;920;48.944;9.148;2023-02-28T07:22:04;12.30;;;8.10;;
1839;SDS011;920;48.944;9.148;2023-02-28T07:24:31;10.43;;;7.40;;
1839;SDS011;920;48.944;9.148;2023-02-28T07:27:03;10.23;;;6.70;;
1839;SDS011;920;48.944;9.148;2023-02-28T07:29:33;12.13;;;6.83;;
1839;SDS011;920;48.944;9.148;2023-02-28T07:32:04;9.63;;;7.13;;
1839;SDS011;920;48.944;9.148;2023-02-28T07:34:31;10.30;;;7.23;;
1839;SDS011;920;48.944;9.148;2023-02-28T07:36:58;9.67;;;7.13;;
1839;SDS011;920;48.944;9.148;2023-02-28T07:39:28;11.37;;;8.40;;
1839;SDS011;920;48.944;9.148;2023-02-28T07:41:55;11.30;;;7.37;;
1839;SDS011;920;48.944;9.148;2023-02-28T07:44:25;11.80;;;8.03;;
1839;SDS011;920;48.944;9.148;2023-02-28T07:46:51;9.13;;;6.43;;
1839;SDS011;920;48.944;9.148;2023-02-28T07:49:20;10.77;;;7.10;;
1839;SDS011;920;48.944;9.148;2023-02-28T07:51:49;9.50;;;6.83;;
1839;SDS011;920;48.944;9.148;2023-02-28T07:54:15;10.80;;;7.63;;
1839;SDS011;920;48.944;9.148;2023-02-28T07:56:48;10.57;;;7.30;;
1839;SDS011;920;48.944;9.148;2023-02-28T07:59:14;10.30;;;7.47;;
1839;SDS011;920;48.944;9.148;2023-02-28T08:01:43;10.50;;;7.63;;
1839;SDS011;920;48.944;9.148;2023-02-28T08:04:11;9.27;;;7.17;;
1839;SDS011;920;48.944;9.148;2023-02-28T08:06:40;9.47;;;6.80;;
1839;SDS011;920;48.944;9.148;2023-02-28T08:09:09;11.53;;;7.43;;
1839;SDS011;920;48.944;9.148;2023-02-28T08:11:38;12.07;;;8.17;;
1839;SDS011;920;48.944;9.148;2023-02-28T08:14:05;11.53;;;8.13;;
1839;SDS011;920;48.944;9.148;2023-02-28T08:16:34;11.60;;;8.17;;
1839;SDS011;920;48.944;9.148;2023-02-28T08:19:07;17.93;;;7.70;;
1839;SDS011;920;48.944;9.148;2023-02-28T08:21:34;9.97;;;7.60;;
1839;SDS011;920;48.944;9.148;2023-02-28T08:24:02;10.27;;;7.40;;
1839;SDS011;920;48.944;9.148;2023-02-28T08:26:31;10.40;;;7.60;;
1839;SDS011;920;48.944;9.148;2023-02-28T08:28:58;11.07;;;7.63;;
1839;SDS011;920;48.944;9.148;2023-02-28T08:31:26;12.00;;;8.20;;
1839;SDS011;920;48.944;9.148;2023-02-28T08:33:55;11.97;;;8.13;;
1839;SDS011;920;48.944;9.148;2023-02-28T08:36:24;11.93;;;8.67;;
1839;SDS011;920;48.944;9.148;2023-02-28T08:38:53;11.90;;;8.20;;
1839;SDS011;920;48.944;9.148;2023-02-28T08:41:21;14.53;;;7.13;;
1839;SDS011;920;48.944;9.148;2023-02-28T08:43:51;8.80;;;7.77;;
1839;SDS011;920;48.944;9.148;2023-02-28T08:46:19;10.77;;;7.67;;
1839;SDS011;920;48.944;9.148;2023-02-28T08:48:46;12.07;;;8.83;;
1839;SDS011;920;48.944;9.148;2023-02-28T08:51:17;11.70;;;8.87;;
1839;SDS011;920;48.944;9.148;2023-02-28T08:53:47;11.70;;;8.73;;
1839;SDS011;920;48.944;9.148;2023-02-28T08:56:15;10.33;;;7.90;;
1839;SDS011;920;48.944;9.148;2023-02-28T08:58:44;9.97;;;7.40;;
1839;SDS011;920;48.944;9.148;2023-02-28T09:01:12;11.80;;;7.93;;
1839;SDS011;920;48.944;9.148;2023-02-28T09:03:40;11.40;;;8.20;;
1839;SDS011;920;48.944;9.148;2023-02-28T09:06:09;13.07;;;8.23;;
1839;SDS011;920;48.944;9.148;2023-02-28T09:08:36;9.83;;;7.50;;
1839;SDS011;920;48.944;9.148;2023-02-28T09:11:06;10.47;;;7.60;;
1839;SDS011;920;48.944;9.148;2023-02-28T09:13:33;12.00;;;7.90;;
1839;SDS011;920;48.944;9.148;2023-02-28T09:16:02;11.03;;;7.43;;
1839;SDS011;920;48.944;9.148;2023-02-28T09:18:30;11.00;;;7.73;;
1839;SDS011;920;48.944;9.148;2023-02-28T09:20:57;9.77;;;7.30;;
1839;SDS011;920;48.944;9.148;2023-02-28T09:23:24;11.00;;;8.30;;
1839;SDS011;920;48.944;9.148;2023-02-28T09:25:52;11.00;;;7.70;;
1839;SDS011;920;48.944;9.148;2023-02-28T09:28:22;11.70;;;7.57;;
1839;SDS011;920;48.944;9.148;2023-02-28T09:30:53;9.47;;;7.30;;
1839;SDS011;920;48.944;9.148;2023-02-28T09:33:23;9.70;;;7.50;;
1839;SDS011;920;48.944;9.148;2023-02-28T09:35:57;14.03;;;8.63;;
1839;SDS011;920;48.944;9.148;2023-02-28T09:38:25;22.20;;;8.13;;
1839;SDS011;920;48.944;9.148;2023-02-28T09:40:53;11.60;;;8.07;;
1839;SDS011;920;48.944;9.148;2023-02-28T09:43:23;10.87;;;8.10;;
1839;SDS011;920;48.944;9.148;2023-02-28T09:45:54;12.80;;;9.10;;
1839;SDS011;920;48.944;9.148;2023-02-28T09:48:28;11.57;;;8.90;;
1839;SDS011;920;48.944;9.148;2023-02-28T09:51:00;10.70;;;8.27;;
1839;SDS011;920;48.944;9.148;2023-02-28T09:53:32;9.40;;;8.37;;
1839;SDS011;920;48.944;9.148;2023-02-28T09:56:04;9.73;;;8.00;;
1839;SDS011;920;48.944;9.148;2023-02-28T09:58:39;10.80;;;7.53;;
1839;SDS011;920;48.944;9.148;2023-02-28T10:01:12;10.10;;;7.47;;
1839;SDS011;920;48.944;9.148;2023-02-28T10:03:52;11.00;;;8.10;;
1839;SDS011;920;48.944;9.148;2023-02-28T10:06:22;12.13;;;9.03;;
1839;SDS011;920;48.944;9.148;2023-02-28T10:08:58;12.27;;;8.80;;
1839;SDS011;920;48.944;9.148;2023-02-28T10:11:27;10.60;;;8.27;;
1839;SDS011;920;48.944;9.148;2023-02-28T10:13:56;11.87;;;8.80;;
1839;SDS011;920;48.944;9.148;2023-02-28T10:16:29;9.57;;;7.53;;
1839;SDS011;920;48.944;9.148;2023-02-28T10:19:02;11.33;;;8.20;;
1839;SDS011;920;48.944;9.148;2023-02-28T10:21:34;13.33;;;9.20;;
1839;SDS011;920;48.944;9.148;2023-02-28T10:24:13;14.20;;;9.23;;
1839;SDS011;920;48.944;9.148;2023-02-28T10:26:45;10.00;;;8.40;;
1839;SDS011;920;48.944;9.148;2023-02-28T10:29:14;11.27;;;8.03;;
1839;SDS011;920;48.944;9.148;2023-02-28T10:31:41;12.53;;;8.97;;
1839;SDS011;920;48.944;9.148;2023-02-28T10:34:09;10.97;;;8.30;;
1839;SDS011;920;48.944;9.148;2023-02-28T10:36:38;11.63;;;8.27;;
1839;SDS011;920;48.944;9.148;2023-02-28T10:42:02;11.40;;;8.10;;
1839;SDS011;920;48.944;9.148;2023-02-28T10:44:31;9.87;;;7.37;;
1839;SDS011;920;48.944;9.148;2023-02-28T10:46:58;10.10;;;7.70;;
1839;SDS011;920;48.944;9.148;2023-02-28T10:49:27;10.50;;;7.80;;
1839;SDS011;920;48.944;9.148;2023-02-28T10:51:57;11.27;;;8.80;;
1839;SDS011;920;48.944;9.148;2023-02-28T10:54:29;10.00;;;7.60;;
1839;SDS011;920;48.944;9.148;2023-02-28T10:57:06;11.13;;;7.93;;
1839;SDS011;920;48.944;9.148;2023-02-28T10:59:34;9.80;;;7.87;;
1839;SDS011;920;48.944;9.148;2023-02-28T11:02:02;10.43;;;8.20;;
1839;SDS011;920;48.944;9.148;2023-02-28T11:04:34;10.50;;;7.57;;
1839;SDS011;920;48.944;9.148;2023-02-28T11:07:14;10.37;;;7.70;;
1839;SDS011;920;48.944;9.148;2023-02-28T11:09:44;9.17;;;7.17;;
1839;SDS011;920;48.944;9.148;2023-02-28T11:12:19;9.07;;;7.27;;
1839;SDS011;920;48.944;9.148;2023-02-28T11:14:49;13.13;;;9.10;;
1839;SDS011;920;48.944;9.148;2023-02-28T11:17:20;13.10;;;9.07;;
1839;SDS011;920;48.944;9.148;2023-02-28T11:19:50;11.20;;;7.60;;
1839;SDS011;920;48.944;9.148;2023-02-28T11:22:18;10.53;;;8.33;;
1839;SDS011;920;48.944;9.148;2023-02-28T11:24:47;11.03;;;8.53;;
1839;SDS011;920;48.944;9.148;2023-02-28T11:27:25;10.00;;;8.43;;
1839;SDS011;920;48.944;9.148;2023-02-28T11:29:53;12.10;;;8.00;;
1839;SDS011;920;48.944;9.148;2023-02-28T11:32:22;11.10;;;8.73;;
1839;SDS011;920;48.944;9.148;2023-02-28T11:35:03;9.63;;;7.97;;
1839;SDS011;920;48.944;9.148;2023-02-28T11:37:40;9.80;;;7.63;;
1839;SDS011;920;48.944;9.148;2023-02-28T11:40:12;9.10;;;7.00;;
1839;SDS011;920;48.944;9.148;2023-02-28T11:42:50;10.27;;;7.47;;
1839;SDS011;920;48.944;9.148;2023-02-28T11:45:39;11.80;;;7.90;;
1839;SDS011;920;48.944;9.148;2023-02-28T11:48:14;10.03;;;7.93;;
1839;SDS011;920;48.944;9.148;2023-02-28T11:50:49;10.00;;;7.60;;
1839;SDS011;920;48.944;9.148;2023-02-28T11:53:33;10.67;;;8.23;;
1839;SDS011;920;48.944;9.148;2023-02-28T11:56:08;11.10;;;8.07;;
1839;SDS011;920;48.944;9.148;2023-02-28T11:58:48;11.17;;;8.73;;
1839;SDS011;920;48.944;9.148;2023-02-28T12:04:12;10.97;;;8.70;;
1839;SDS011;920;48.944;9.148;2023-02-28T12:06:47;10.60;;;7.97;;
1839;SDS011;920;48.944;9.148;2023-02-28T12:09:20;9.77;;;8.00;;
1839;SDS011;920;48.944;9.148;2023-02-28T12:11:56;11.70;;;8.87;;
1839;SDS011;920;48.944;9.148;2023-02-28T12:17:26;10.03;;;7.57;;
1839;SDS011;920;48.944;9.148;2023-02-28T12:20:05;10.97;;;8.50;;
1839;SDS011;920;48.944;9.148;2023-02-28T12:22:41;9.57;;;7.47;;
1839;SDS011;920;48.944;9.148;2023-02-28T12:28:18;9.40;;;7.93;;
1839;SDS011;920;48.944;9.148;2023-02-28T12:30:54;11.23;;;7.80;;
1839;SDS011;920;48.944;9.148;2023-02-28T12:33:36;10.03;;;8.43;;
1839;SDS011;920;48.944;9.148;2023-02-28T12:36:07;9.63;;;7.70;;
1839;SDS011;920;48.944;9.148;2023-02-28T12:38:39;9.03;;;7.13;;
1839;SDS011;920;48.944;9.148;2023-02-28T12:41:14;10.27;;;7.90;;
1839;SDS011;920;48.944;9.148;2023-02-28T12:43:44;8.57;;;7.00;;
1839;SDS011;920;48.944;9.148;2023-02-28T12:46:19;9.30;;;7.87;;
1839;SDS011;920;48.944;9.148;2023-02-28T12:48:54;9.20;;;7.80;;
1839;SDS011;920;48.944;9.148;2023-02-28T12:51:32;9.80;;;7.80;;
1839;SDS011;920;48.944;9.148;2023-02-28T12:54:04;10.53;;;8.00;;
1839;SDS011;920;48.944;9.148;2023-02-28T12:56:36;9.73;;;8.47;;
1839;SDS011;920;48.944;9.148;2023-02-28T12:59:13;10.00;;;8.40;;
1839;SDS011;920;48.944;9.148;2023-02-28T13:01:51;10.97;;;8.77;;
1839;SDS011;920;48.944;9.148;2023-02-28T13:04:40;9.90;;;8.40;;
1839;SDS011;920;48.944;9.148;2023-02-28T13:07:13;8.83;;;7.40;;
1839;SDS011;920;48.944;9.148;2023-02-28T13:10:00;9.63;;;8.00;;
1839;SDS011;920;48.944;9.148;2023-02-28T13:12:32;13.67;;;8.10;;
1839;SDS011;920;48.944;9.148;2023-02-28T13:15:04;12.70;;;8.60;;
1839;SDS011;920;48.944;9.148;2023-02-28T13:17:37;11.67;;;9.07;;
1839;SDS011;920;48.944;9.148;2023-02-28T13:20:14;10.33;;;8.23;;
1839;SDS011;920;48.944;9.148;2023-02-28T13:22:44;11.20;;;9.40;;
1839;SDS011;920;48.944;9.148;2023-02-28T13:38:22;10.97;;;9.30;;
1839;SDS011;920;48.944;9.148;2023-02-28T13:44:17;9.20;;;7.23;;
1839;SDS011;920;48.944;9.148;2023-02-28T13:49:47;10.13;;;8.40;;
1839;SDS011;920;48.944;9.148;2023-02-28T13:52:22;11.90;;;8.80;;
1839;SDS011;920;48.944;9.148;2023-02-28T13:55:02;11.50;;;8.73;;
1839;SDS011;920;48.944;9.148;2023-02-28T13:57:44;10.20;;;8.43;;
1839;SDS011;920;48.944;9.148;2023-02-28T14:00:30;12.07;;;9.20;;
1839;SDS011;920;48.944;9.148;2023-02-28T14:03:17;10.17;;;8.53;;
1839;SDS011;920;48.944;9.148;2023-02-28T14:06:15;12.93;;;10.47;;
1839;SDS011;920;48.944;9.148;2023-02-28T14:08:47;10.30;;;9.00;;
1839;SDS011;920;48.944;9.148;2023-02-28T14:11:26;10.87;;;8.60;;
1839;SDS011;920;48.944;9.148;2023-02-28T14:13:56;11.77;;;8.60;;
1839;SDS011;920;48.944;9.148;2023-02-28T14:16:23;11.13;;;9.93;;
1839;SDS011;920;48.944;9.148;2023-02-28T14:18:55;13.00;;;10.30;;
1839;SDS011;920;48.944;9.148;2023-02-28T14:21:31;12.17;;;10.20;;
1839;SDS011;920;48.944;9.148;2023-02-28T14:24:17;12.10;;;10.03;;
1839;SDS011;920;48.944;9.148;2023-02-28T14:27:12;11.07;;;9.13;;
1839;SDS011;920;48.944;9.148;2023-02-28T14:33:01;12.63;;;11.30;;
1839;SDS011;920;48.944;9.148;2023-02-28T14:35:48;12.57;;;9.33;;
1839;SDS011;920;48.944;9.148;2023-02-28T14:38:25;13.17;;;10.40;;
1839;SDS011;920;48.944;9.148;2023-02-28T14:40:56;14.07;;;9.93;;
1839;SDS011;920;48.944;9.148;2023-02-28T14:43:28;13.20;;;10.60;;
1839;SDS011;920;48.944;9.148;2023-02-28T14:45:55;11.70;;;10.10;;
1839;SDS011;920;48.944;9.148;2023-02-28T14:48:27;14.90;;;11.23;;
1839;SDS011;920;48.944;9.148;2023-02-28T14:50:55;12.23;;;10.10;;
1839;SDS011;920;48.944;9.148;2023-02-28T14:53:23;10.30;;;9.20;;
1839;SDS011;920;48.944;9.148;2023-02-28T14:55:54;10.13;;;9.10;;
1839;SDS011;920;48.944;9.148;2023-02-28T14:58:26;11.03;;;9.90;;
1839;SDS011;920;48.944;9.148;2023-02-28T15:00:54;13.20;;;10.57;;
1839;SDS011;920;48.944;9.148;2023-02-28T15:03:23;11.60;;;10.20;;
1839;SDS011;920;48.944;9.148;2023-02-28T15:05:53;12.17;;;9.40;;
1839;SDS011;920;48.944;9.148;2023-02-28T15:08:21;15.10;;;10.47;;
1839;SDS011;920;48.944;9.148;2023-02-28T15:10:52;11.00;;;9.87;;
1839;SDS011;920;48.944;9.148;2023-02-28T15:13:20;11.53;;;8.60;;
1839;SDS011;920;48.944;9.148;2023-02-28T15:15:49;13.83;;;10.10;;
1839;SDS011;920;48.944;9.148;2023-02-28T15:18:25;12.93;;;10.77;;
1839;SDS011;920;48.944;9.148;2023-02-28T15:21:03;11.00;;;9.77;;
1839;SDS011;920;48.944;9.148;2023-02-28T15:23:39;11.53;;;9.57;;
1839;SDS011;920;48.944;9.148;2023-02-28T15:26:06;11.93;;;8.70;;
1839;SDS011;920;48.944;9.148;2023-02-28T15:28:36;12.50;;;9.97;;
1839;SDS011;920;48.944;9.148;2023-02-28T15:31:03;10.43;;;8.30;;
1839;SDS011;920;48.944;9.148;2023-02-28T15:33:54;11.47;;;8.90;;
1839;SDS011;920;48.944;9.148;2023-02-28T15:36:25;13.77;;;10.60;;
1839;SDS011;920;48.944;9.148;2023-02-28T15:38:53;11.90;;;9.63;;
1839;SDS011;920;48.944;9.148;2023-02-28T15:41:24;15.57;;;11.57;;
1839;SDS011;920;48.944;9.148;2023-02-28T15:46:42;12.50;;;11.20;;
1839;SDS011;920;48.944;9.148;2023-02-28T15:49:14;12.40;;;10.63;;
1839;SDS011;920;48.944;9.148;2023-02-28T15:51:46;10.80;;;9.70;;
1839;SDS011;920;48.944;9.148;2023-02-28T15:54:17;13.30;;;10.80;;
1839;SDS011;920;48.944;9.148;2023-02-28T15:56:49;11.67;;;9.83;;
1839;SDS011;920;48.944;9.148;2023-02-28T15:59:21;12.43;;;10.17;;
1839;SDS011;920;48.944;9.148;2023-02-28T16:02:01;14.97;;;10.60;;
1839;SDS011;920;48.944;9.148;2023-02-28T16:04:32;12.63;;;9.40;;
1839;SDS011;920;48.944;9.148;2023-02-28T16:07:06;11.30;;;9.27;;
1839;SDS011;920;48.944;9.148;2023-02-28T16:09:45;13.73;;;10.67;;
1839;SDS011;920;48.944;9.148;2023-02-28T16:12:15;12.37;;;9.57;;
1839;SDS011;920;48.944;9.148;2023-02-28T16:14:42;10.53;;;8.90;;
1839;SDS011;920;48.944;9.148;2023-02-28T16:17:16;14.80;;;10.70;;
1839;SDS011;920;48.944;9.148;2023-02-28T16:19:48;13.00;;;10.20;;
1839;SDS011;920;48.944;9.148;2023-02-28T16:22:24;10.50;;;8.90;;
1839;SDS011;920;48.944;9.148;2023-02-28T16:24:54;12.67;;;9.90;;
1839;SDS011;920;48.944;9.148;2023-02-28T16:27:21;13.73;;;10.10;;
1839;SDS011;920;48.944;9.148;2023-02-28T16:29:51;12.50;;;9.63;;
1839;SDS011;920;48.944;9.148;2023-02-28T16:32:19;11.60;;;9.87;;